KSNK/SNK METAR and TAF weather

Enter ICAO airport designator
Station Type Date Time Source
KSNK METAR 2020/12/06 01:55 UTC NOAA

KSNK 060155Z AUTO 19005KT 10SM BKN120 06/M03 A3024 RMK AO2 T00631034


Station Type Date Time Source
KSNK Decoded METAR 2020/12/06 01:55 UTC NOAA

Snyder, Winston Field Airport, TX, United States (KSNK) 32-41-36N 100-57-01W
Dec 05, 2020 - 08:55 PM EST / 2020.12.06 0155 UTC
Wind: from the S (190 degrees) at 6 MPH (5 KT):0
Visibility: 10 mile(s):0
Sky conditions: mostly cloudy
Temperature: 43.3 F (6.3 C)
Dew Point: 25.9 F (-3.4 C)
Relative Humidity: 49%
Pressure (altimeter): 30.24 in. Hg (1024 hPa)
ob: KSNK 060155Z AUTO 19005KT 10SM BKN120 06/M03 A3024 RMK AO2 T00631034
cycle: 2

Station Type Date Time Source
KSNK TAF UTC NOAA

Error!

Example: see airport list